Time;durP1;ratioP1;P1;durP2;ratioP2;P2;SDS_P1;SDS_P2;PMS_P1;PMS_P2;Temp;Humidity;BMP_temperature;BMP_pressure;BME280_temperature;BME280_humidity;BME280_pressure;Samples;Min_cycle;Max_cycle;Signal;HPM_P1;HPM_P2
2022/03/13 00:01:53;;;;;;;9.73;8.82;;;;;;;;;;5013184;28;92917;-72
2022/03/13 00:04:20;;;;;;;10.57;9.07;;;;;;;;;;5013930;28;93984;-70
2022/03/13 00:06:46;;;;;;;11.50;9.93;;;;;;;;;;5016722;28;93254;-70
2022/03/13 00:09:14;;;;;;;11.27;9.52;;;;;;;;;;5012128;28;93137;-70
2022/03/13 00:11:41;;;;;;;10.45;9.27;;;;;;;;;;5014450;28;92948;-70
2022/03/13 00:14:10;;;;;;;10.45;9.38;;;;;;;;;;5013428;28;93170;-70
2022/03/13 00:16:37;;;;;;;12.70;9.90;;;;;;;;;;5013688;28;94052;-70
2022/03/13 00:19:06;;;;;;;9.68;8.68;;;;;;;;;;5011681;28;96728;-70
2022/03/13 00:21:39;;;;;;;13.05;9.55;;;;;;;;;;5013712;28;92589;-70
2022/03/13 00:24:06;;;;;;;10.55;9.35;;;;;;;;;;5013520;28;93060;-70
2022/03/13 00:26:34;;;;;;;10.80;9.52;;;;;;;;;;5013467;28;94862;-70
2022/03/13 00:29:01;;;;;;;12.40;9.13;;;;;;;;;;5016467;28;92830;-70
2022/03/13 00:31:28;;;;;;;10.90;9.80;;;;;;;;;;5013702;28;93981;-69
2022/03/13 00:33:54;;;;;;;10.10;9.13;;;;;;;;;;5013141;28;92512;-70
2022/03/13 00:36:21;;;;;;;11.95;9.68;;;;;;;;;;5012798;28;92870;-70
2022/03/13 00:38:48;;;;;;;18.42;9.23;;;;;;;;;;5012966;28;93384;-70
2022/03/13 00:41:14;;;;;;;16.38;9.50;;;;;;;;;;5012172;28;94703;-70
2022/03/13 00:43:40;;;;;;;12.35;8.25;;;;;;;;;;5011081;28;95409;-70
2022/03/13 00:46:12;;;;;;;10.10;9.10;;;;;;;;;;5013322;28;94608;-70
2022/03/13 00:48:38;;;;;;;9.77;8.88;;;;;;;;;;5011802;28;92616;-70
2022/03/13 00:51:05;;;;;;;9.57;8.52;;;;;;;;;;5015660;28;93999;-70
2022/03/13 00:53:31;;;;;;;9.25;8.23;;;;;;;;;;5013098;28;92484;-70
2022/03/13 00:55:58;;;;;;;10.07;8.50;;;;;;;;;;5013472;28;92732;-70
2022/03/13 00:58:24;;;;;;;8.93;8.00;;;;;;;;;;5011676;28;93261;-70
2022/03/13 01:00:54;;;;;;;11.48;7.95;;;;;;;;;;5013166;28;91876;-70
2022/03/13 01:03:50;;;;;;;7.88;7.13;;;;;;;;;;5013082;28;92981;-69
2022/03/13 01:06:18;;;;;;;10.05;7.30;;;;;;;;;;5006867;28;94337;-70
2022/03/13 01:08:47;;;;;;;9.13;7.25;;;;;;;;;;5011817;28;94920;-70
2022/03/13 01:11:18;;;;;;;7.10;6.40;;;;;;;;;;5010773;28;96346;-70
2022/03/13 01:13:45;;;;;;;7.35;6.65;;;;;;;;;;5015179;28;95997;-70
2022/03/13 01:16:17;;;;;;;7.55;6.22;;;;;;;;;;5012062;28;93805;-70
2022/03/13 01:18:48;;;;;;;7.90;7.20;;;;;;;;;;5012473;28;93656;-70
2022/03/13 01:21:15;;;;;;;8.30;6.85;;;;;;;;;;5011922;28;93041;-70
2022/03/13 01:23:54;;;;;;;7.82;7.00;;;;;;;;;;5013253;28;93135;-70
2022/03/13 01:26:23;;;;;;;6.68;6.07;;;;;;;;;;5011721;28;93331;-69
2022/03/13 01:28:56;;;;;;;6.63;6.13;;;;;;;;;;5011400;28;93355;-70
2022/03/13 01:31:22;;;;;;;;;;;;;;;;;;5013339;28;93565;-69
2022/03/13 01:33:49;;;;;;;6.10;5.50;;;;;;;;;;5010151;28;125344;-70
2022/03/13 01:36:15;;;;;;;5.97;5.47;;;;;;;;;;5015604;28;92502;-70
2022/03/13 01:38:42;;;;;;;6.28;5.78;;;;;;;;;;5012217;28;94119;-70
2022/03/13 01:41:08;;;;;;;10.52;6.32;;;;;;;;;;5012197;28;92583;-70
2022/03/13 01:43:35;;;;;;;9.38;5.82;;;;;;;;;;5012058;28;92887;-71
2022/03/13 01:46:03;;;;;;;6.80;5.90;;;;;;;;;;5011508;28;93376;-70
2022/03/13 01:48:30;;;;;;;6.53;5.93;;;;;;;;;;5012101;28;92806;-71
2022/03/13 01:50:56;;;;;;;6.53;5.90;;;;;;;;;;5013342;28;92591;-70
2022/03/13 01:53:23;;;;;;;6.20;5.70;;;;;;;;;;5010829;28;94223;-70
2022/03/13 01:55:55;;;;;;;6.18;5.68;;;;;;;;;;5016147;28;93243;-70
2022/03/13 01:58:21;;;;;;;8.70;6.68;;;;;;;;;;5010021;28;96803;-70
2022/03/13 02:00:48;;;;;;;7.22;5.72;;;;;;;;;;5010583;28;92495;-70
2022/03/13 02:03:18;;;;;;;6.45;5.85;;;;;;;;;;5012150;28;93272;-70
2022/03/13 02:05:44;;;;;;;6.65;6.15;;;;;;;;;;5011093;28;94160;-70
2022/03/13 02:08:17;;;;;;;6.50;5.90;;;;;;;;;;5011599;28;92636;-69
2022/03/13 02:10:44;;;;;;;6.22;5.68;;;;;;;;;;5012113;28;96661;-70
2022/03/13 02:13:11;;;;;;;6.97;6.38;;;;;;;;;;5012193;28;94263;-69
2022/03/13 02:15:38;;;;;;;6.95;6.45;;;;;;;;;;5010789;28;91866;-69
2022/03/13 02:18:05;;;;;;;7.15;6.53;;;;;;;;;;5014304;28;92849;-69
2022/03/13 02:20:35;;;;;;;6.55;5.95;;;;;;;;;;5012584;28;92455;-70
2022/03/13 02:23:02;;;;;;;7.22;6.57;;;;;;;;;;5009526;28;95699;-70
2022/03/13 02:25:34;;;;;;;7.20;6.60;;;;;;;;;;5011890;28;93495;-70
2022/03/13 02:28:01;;;;;;;6.65;6.05;;;;;;;;;;5012032;28;94229;-69
2022/03/13 02:30:27;;;;;;;6.53;5.93;;;;;;;;;;5012200;28;93453;-70
2022/03/13 02:32:54;;;;;;;6.38;5.88;;;;;;;;;;5010303;28;93141;-70
2022/03/13 02:35:20;;;;;;;7.55;6.90;;;;;;;;;;5011529;28;92813;-70
2022/03/13 02:37:47;;;;;;;6.88;6.28;;;;;;;;;;5011699;28;92933;-70
2022/03/13 02:40:19;;;;;;;8.85;6.40;;;;;;;;;;5015482;28;94364;-70
2022/03/13 02:42:45;;;;;;;10.23;6.60;;;;;;;;;;5010415;28;93543;-70
2022/03/13 02:45:21;;;;;;;7.10;6.40;;;;;;;;;;5011872;28;93571;-70
2022/03/13 02:47:48;;;;;;;7.20;6.50;;;;;;;;;;5006029;28;94861;-69
2022/03/13 02:50:14;;;;;;;7.43;6.75;;;;;;;;;;5009610;28;95329;-70
2022/03/13 02:52:41;;;;;;;6.32;5.80;;;;;;;;;;5011948;28;95855;-70
2022/03/13 02:55:07;;;;;;;7.35;6.65;;;;;;;;;;5012264;28;92537;-70
2022/03/13 02:57:35;;;;;;;8.07;6.40;;;;;;;;;;5011296;28;92955;-70
2022/03/13 03:00:01;;;;;;;6.95;6.30;;;;;;;;;;5012857;28;93449;-70
2022/03/13 03:02:27;;;;;;;8.43;6.93;;;;;;;;;;5017699;28;92483;-70
2022/03/13 03:04:55;;;;;;;7.10;6.53;;;;;;;;;;5013815;28;93611;-70
2022/03/13 03:07:22;;;;;;;7.05;6.45;;;;;;;;;;5015074;28;92532;-70
2022/03/13 03:09:48;;;;;;;7.60;6.90;;;;;;;;;;5014314;28;92903;-70
2022/03/13 03:12:14;;;;;;;7.70;6.93;;;;;;;;;;5012377;28;96561;-71
2022/03/13 03:14:41;;;;;;;7.70;7.03;;;;;;;;;;5014508;28;93437;-70
2022/03/13 03:17:07;;;;;;;9.68;8.52;;;;;;;;;;5014872;28;96033;-70
2022/03/13 03:19:33;;;;;;;11.15;8.70;;;;;;;;;;5012182;28;94235;-70
2022/03/13 03:22:00;;;;;;;10.05;9.05;;;;;;;;;;5014154;28;92457;-70
2022/03/13 03:24:26;;;;;;;9.93;9.02;;;;;;;;;;5016148;28;93936;-70
2022/03/13 03:26:53;;;;;;;10.50;9.40;;;;;;;;;;5015119;28;92489;-70
2022/03/13 03:29:20;;;;;;;11.25;10.20;;;;;;;;;;5014214;28;94082;-70
2022/03/13 03:31:47;;;;;;;10.52;9.50;;;;;;;;;;5013356;28;94238;-70
2022/03/13 03:34:15;;;;;;;13.77;10.48;;;;;;;;;;5014167;28;93502;-70
2022/03/13 03:36:43;;;;;;;11.43;10.30;;;;;;;;;;5011140;28;94833;-70
2022/03/13 03:39:10;;;;;;;12.05;9.55;;;;;;;;;;5013421;28;93864;-70
2022/03/13 03:41:36;;;;;;;11.82;10.60;;;;;;;;;;5014243;28;92843;-69
2022/03/13 03:44:03;;;;;;;18.25;10.75;;;;;;;;;;5017177;28;93980;-69
2022/03/13 03:46:30;;;;;;;14.77;10.63;;;;;;;;;;5012357;28;92483;-70
2022/03/13 03:48:56;;;;;;;13.13;10.93;;;;;;;;;;5014000;28;94034;-70
2022/03/13 03:51:23;;;;;;;13.05;11.75;;;;;;;;;;5012479;28;93427;-70
2022/03/13 03:53:49;;;;;;;12.30;10.40;;;;;;;;;;5013079;28;91751;-70
2022/03/13 03:56:16;;;;;;;12.85;11.50;;;;;;;;;;5012897;28;93367;-70
2022/03/13 03:58:42;;;;;;;15.05;11.18;;;;;;;;;;5013409;28;93073;-69
2022/03/13 04:01:08;;;;;;;11.50;10.20;;;;;;;;;;5011612;28;94816;-70
2022/03/13 04:03:35;;;;;;;12.88;11.68;;;;;;;;;;5012611;28;96222;-70
2022/03/13 04:06:01;;;;;;;12.73;11.35;;;;;;;;;;5016614;28;94203;-70
2022/03/13 04:08:29;;;;;;;15.18;12.48;;;;;;;;;;5010135;28;93289;-70
2022/03/13 04:10:56;;;;;;;14.75;12.80;;;;;;;;;;5012234;28;94200;-70
2022/03/13 04:13:22;;;;;;;13.73;11.85;;;;;;;;;;5012541;28;92604;-70
2022/03/13 04:15:49;;;;;;;12.45;11.13;;;;;;;;;;5012774;28;93969;-70
2022/03/13 04:18:15;;;;;;;14.32;11.85;;;;;;;;;;5012769;28;92652;-70
2022/03/13 04:20:43;;;;;;;13.68;12.27;;;;;;;;;;5012320;28;92440;-70
2022/03/13 04:23:10;;;;;;;12.90;11.60;;;;;;;;;;5011765;28;93899;-70
2022/03/13 04:25:37;;;;;;;15.20;11.75;;;;;;;;;;5010310;28;96907;-70
2022/03/13 04:28:04;;;;;;;16.52;12.68;;;;;;;;;;5015768;28;93019;-70
2022/03/13 04:30:31;;;;;;;16.42;12.23;;;;;;;;;;5012304;28;94055;-70
2022/03/13 04:32:57;;;;;;;16.20;12.45;;;;;;;;;;5013108;28;92455;-70
2022/03/13 04:35:24;;;;;;;13.57;12.25;;;;;;;;;;5012372;28;93903;-70
2022/03/13 04:37:51;;;;;;;16.38;12.95;;;;;;;;;;5012991;28;93222;-70
2022/03/13 04:40:18;;;;;;;15.20;13.55;;;;;;;;;;5010988;28;92507;-70
2022/03/13 04:42:45;;;;;;;18.00;14.02;;;;;;;;;;4993044;28;94165;-70
2022/03/13 04:45:12;;;;;;;17.95;14.57;;;;;;;;;;5000108;28;94613;-70
2022/03/13 04:47:38;;;;;;;16.67;14.15;;;;;;;;;;5012980;28;92469;-69
2022/03/13 04:50:05;;;;;;;15.10;13.57;;;;;;;;;;5012286;28;94844;-70
2022/03/13 04:52:31;;;;;;;16.85;14.30;;;;;;;;;;5012698;28;92519;-69
2022/03/13 04:54:58;;;;;;;17.00;13.95;;;;;;;;;;5011848;28;93541;-69
2022/03/13 04:57:24;;;;;;;20.35;14.52;;;;;;;;;;5010895;28;93450;-69
2022/03/13 04:59:50;;;;;;;22.63;14.60;;;;;;;;;;5011854;28;92657;-69
2022/03/13 05:02:17;;;;;;;18.27;14.55;;;;;;;;;;5011581;28;94067;-70
2022/03/13 05:04:43;;;;;;;21.75;15.65;;;;;;;;;;5011251;28;94076;-70
2022/03/13 05:07:10;;;;;;;17.20;14.80;;;;;;;;;;5012857;28;92255;-70
2022/03/13 05:09:37;;;;;;;18.33;15.43;;;;;;;;;;5011942;28;92473;-70
2022/03/13 05:12:05;;;;;;;15.50;13.93;;;;;;;;;;5013795;28;94181;-70
2022/03/13 05:14:31;;;;;;;17.13;14.30;;;;;;;;;;5010482;28;94766;-70
2022/03/13 05:16:58;;;;;;;17.45;13.73;;;;;;;;;;5011872;28;93137;-70
2022/03/13 05:19:25;;;;;;;17.27;14.90;;;;;;;;;;5011930;28;92489;-70
2022/03/13 05:21:51;;;;;;;22.45;15.52;;;;;;;;;;5011909;28;93186;-70
2022/03/13 05:24:17;;;;;;;18.90;15.18;;;;;;;;;;5010881;28;93463;-69
2022/03/13 05:26:45;;;;;;;19.83;15.35;;;;;;;;;;5012408;28;93210;-70
2022/03/13 05:29:11;;;;;;;18.42;14.95;;;;;;;;;;5010046;28;93264;-70
2022/03/13 05:31:39;;;;;;;18.50;15.52;;;;;;;;;;5012186;28;93789;-70
2022/03/13 05:34:09;;;;;;;18.77;14.43;;;;;;;;;;5014767;28;92677;-70
2022/03/13 05:36:36;;;;;;;17.95;15.98;;;;;;;;;;5010735;28;93549;-70
2022/03/13 05:39:02;;;;;;;24.77;16.13;;;;;;;;;;5009216;28;95270;-70
2022/03/13 05:41:30;;;;;;;17.38;15.40;;;;;;;;;;5011165;28;94274;-70
2022/03/13 05:43:56;;;;;;;17.75;14.70;;;;;;;;;;5011242;28;94278;-70
2022/03/13 05:46:22;;;;;;;19.25;16.20;;;;;;;;;;5010164;28;93245;-70
2022/03/13 05:48:49;;;;;;;19.15;15.43;;;;;;;;;;5012411;28;93776;-70
2022/03/13 05:51:15;;;;;;;23.83;16.00;;;;;;;;;;5011208;28;94439;-70
2022/03/13 05:53:42;;;;;;;17.50;15.10;;;;;;;;;;5014752;28;92521;-70
2022/03/13 05:56:08;;;;;;;22.60;15.48;;;;;;;;;;5011067;27;92661;-70
2022/03/13 05:58:34;;;;;;;20.65;16.48;;;;;;;;;;5012123;28;92517;-70
2022/03/13 06:01:04;;;;;;;18.50;16.30;;;;;;;;;;5008897;28;94026;-70
2022/03/13 06:03:31;;;;;;;19.83;15.70;;;;;;;;;;5009262;28;96863;-70
2022/03/13 06:05:58;;;;;;;21.00;18.58;;;;;;;;;;5011116;28;92513;-71
2022/03/13 06:08:24;;;;;;;22.60;17.88;;;;;;;;;;5010275;28;92649;-70
2022/03/13 06:10:51;;;;;;;20.85;18.65;;;;;;;;;;5011749;28;93129;-70
2022/03/13 06:13:19;;;;;;;20.63;17.20;;;;;;;;;;5010054;28;92923;-70
2022/03/13 06:15:45;;;;;;;24.45;17.63;;;;;;;;;;5013857;28;93251;-70
2022/03/13 06:18:12;;;;;;;19.23;17.08;;;;;;;;;;5010834;28;92566;-70
2022/03/13 06:20:38;;;;;;;23.60;17.95;;;;;;;;;;5010735;28;94381;-69
2022/03/13 06:23:04;;;;;;;19.42;16.52;;;;;;;;;;5012176;28;93416;-70
2022/03/13 06:25:31;;;;;;;20.98;16.15;;;;;;;;;;5011017;28;92498;-70
2022/03/13 06:27:57;;;;;;;19.80;16.95;;;;;;;;;;5009335;28;94904;-70
2022/03/13 06:30:25;;;;;;;23.15;17.48;;;;;;;;;;5010646;28;94145;-70
2022/03/13 06:32:52;;;;;;;18.35;16.38;;;;;;;;;;5010448;27;94117;-70
2022/03/13 06:35:20;;;;;;;19.00;16.98;;;;;;;;;;5013040;28;93079;-70
2022/03/13 06:37:48;;;;;;;19.90;16.13;;;;;;;;;;5017168;28;93511;-70
2022/03/13 06:40:20;;;;;;;21.25;16.15;;;;;;;;;;5014666;28;94052;-70
2022/03/13 06:42:48;;;;;;;18.23;15.90;;;;;;;;;;5013343;28;94366;-71
2022/03/13 06:45:16;;;;;;;18.48;15.13;;;;;;;;;;5015149;28;92133;-70
2022/03/13 06:47:47;;;;;;;19.52;16.35;;;;;;;;;;5013515;28;94195;-70
2022/03/13 06:50:15;;;;;;;18.30;16.38;;;;;;;;;;5012117;28;94320;-70
2022/03/13 06:52:44;;;;;;;20.80;16.02;;;;;;;;;;5013397;28;94838;-70
2022/03/13 06:55:14;;;;;;;18.90;13.45;;;;;;;;;;5014310;28;94860;-70
2022/03/13 06:57:41;;;;;;;17.83;15.57;;;;;;;;;;5013891;28;94237;-70
2022/03/13 07:00:07;;;;;;;21.15;15.40;;;;;;;;;;5016922;28;92437;-70
2022/03/13 07:02:34;;;;;;;18.45;14.88;;;;;;;;;;5013715;28;95546;-70
2022/03/13 07:05:01;;;;;;;17.35;14.10;;;;;;;;;;5012047;28;92948;-70
2022/03/13 07:07:28;;;;;;;17.85;15.95;;;;;;;;;;5013336;28;93862;-70
2022/03/13 07:09:55;;;;;;;19.35;14.38;;;;;;;;;;5013513;28;93415;-70
2022/03/13 07:12:22;;;;;;;22.85;14.38;;;;;;;;;;5013228;28;92762;-70
2022/03/13 07:14:48;;;;;;;17.63;14.65;;;;;;;;;;5013610;28;95050;-70
2022/03/13 07:17:15;;;;;;;22.10;14.65;;;;;;;;;;5012434;28;95647;-70
2022/03/13 07:19:43;;;;;;;14.82;13.30;;;;;;;;;;5014586;28;92481;-70
2022/03/13 07:22:11;;;;;;;15.45;13.57;;;;;;;;;;5015914;28;92509;-70
2022/03/13 07:24:38;;;;;;;20.45;15.95;;;;;;;;;;5012630;28;92477;-70
2022/03/13 07:27:05;;;;;;;19.15;14.63;;;;;;;;;;5013321;28;93680;-70
2022/03/13 07:29:32;;;;;;;16.00;13.57;;;;;;;;;;5013236;28;93826;-70
2022/03/13 07:31:58;;;;;;;17.33;14.10;;;;;;;;;;5013418;28;92504;-70
2022/03/13 07:34:25;;;;;;;26.92;13.95;;;;;;;;;;5013892;28;93327;-70
2022/03/13 07:36:52;;;;;;;16.77;14.35;;;;;;;;;;5013089;28;94121;-72
2022/03/13 07:39:19;;;;;;;16.67;14.35;;;;;;;;;;5016840;28;92913;-68
2022/03/13 07:41:45;;;;;;;23.10;14.50;;;;;;;;;;5008115;27;96249;-69
2022/03/13 07:44:13;;;;;;;19.48;14.80;;;;;;;;;;5016596;28;95191;-70
2022/03/13 07:46:40;;;;;;;17.75;14.73;;;;;;;;;;5014332;28;93058;-69
2022/03/13 07:49:06;;;;;;;21.33;14.32;;;;;;;;;;5014287;28;94205;-69
2022/03/13 07:51:34;;;;;;;16.48;14.13;;;;;;;;;;5014034;28;92490;-69
2022/03/13 07:54:01;;;;;;;15.15;13.65;;;;;;;;;;5013817;28;93609;-69
2022/03/13 07:56:28;;;;;;;16.67;13.95;;;;;;;;;;5013807;28;93452;-69
2022/03/13 07:58:55;;;;;;;15.82;13.80;;;;;;;;;;5013541;28;91742;-69
2022/03/13 08:01:22;;;;;;;16.05;14.20;;;;;;;;;;5013990;28;92541;-70
2022/03/13 08:03:51;;;;;;;20.48;14.93;;;;;;;;;;5016537;28;92482;-69
2022/03/13 08:06:17;;;;;;;17.35;13.63;;;;;;;;;;5011328;28;96198;-69
2022/03/13 08:08:43;;;;;;;16.02;13.15;;;;;;;;;;5013628;28;93364;-69
2022/03/13 08:11:10;;;;;;;19.38;14.70;;;;;;;;;;5013299;28;92481;-69
2022/03/13 08:13:36;;;;;;;15.65;13.82;;;;;;;;;;5013370;28;93094;-68
2022/03/13 08:16:03;;;;;;;18.67;13.43;;;;;;;;;;5013414;28;93530;-69
2022/03/13 08:18:30;;;;;;;14.98;13.35;;;;;;;;;;5013400;28;92485;-69
2022/03/13 08:20:56;;;;;;;16.38;14.18;;;;;;;;;;5012740;28;93155;-68
2022/03/13 08:23:23;;;;;;;17.92;14.52;;;;;;;;;;5013475;28;92601;-69
2022/03/13 08:25:50;;;;;;;17.45;13.80;;;;;;;;;;5016405;28;92504;-69
2022/03/13 08:28:16;;;;;;;15.77;13.48;;;;;;;;;;5012451;28;94160;-68
2022/03/13 08:30:43;;;;;;;16.17;13.40;;;;;;;;;;5011587;28;94858;-69
2022/03/13 08:33:09;;;;;;;16.83;13.27;;;;;;;;;;5012971;28;95323;-68
2022/03/13 08:35:35;;;;;;;20.45;14.20;;;;;;;;;;5010532;28;93498;-69
2022/03/13 08:38:02;;;;;;;17.48;13.52;;;;;;;;;;5012190;28;92494;-69
2022/03/13 08:40:29;;;;;;;15.40;13.13;;;;;;;;;;5013833;28;94047;-69
2022/03/13 08:42:56;;;;;;;14.70;12.80;;;;;;;;;;5019975;28;94278;-69
2022/03/13 08:45:23;;;;;;;17.60;14.25;;;;;;;;;;5013343;28;92885;-69
2022/03/13 08:47:49;;;;;;;19.80;13.85;;;;;;;;;;5016704;28;93141;-69
2022/03/13 08:50:20;;;;;;;17.67;12.98;;;;;;;;;;5012592;28;93394;-69
2022/03/13 08:52:46;;;;;;;18.38;11.93;;;;;;;;;;5012112;28;93314;-69
2022/03/13 08:55:18;;;;;;;15.32;13.02;;;;;;;;;;5009305;28;96468;-68
2022/03/13 08:57:45;;;;;;;14.40;12.88;;;;;;;;;;5011034;28;92694;-69
2022/03/13 09:00:14;;;;;;;16.30;13.27;;;;;;;;;;5010210;28;93926;-69
2022/03/13 09:02:40;;;;;;;13.50;11.98;;;;;;;;;;5001617;28;94242;-69
2022/03/13 09:05:07;;;;;;;14.63;12.93;;;;;;;;;;5012747;28;92737;-69
2022/03/13 09:07:34;;;;;;;17.08;12.50;;;;;;;;;;5012244;28;93224;-69
2022/03/13 09:10:02;;;;;;;15.02;11.73;;;;;;;;;;5015055;28;93451;-69
2022/03/13 09:12:31;;;;;;;13.38;11.98;;;;;;;;;;5012381;28;93005;-69
2022/03/13 09:14:58;;;;;;;14.45;12.32;;;;;;;;;;5010597;28;93110;-69
2022/03/13 09:17:24;;;;;;;13.20;11.90;;;;;;;;;;5010773;28;92621;-69
2022/03/13 09:19:50;;;;;;;18.45;12.15;;;;;;;;;;5010643;28;94824;-69
2022/03/13 09:22:19;;;;;;;22.40;13.48;;;;;;;;;;5011990;28;94199;-69
2022/03/13 09:24:46;;;;;;;18.13;12.18;;;;;;;;;;5009085;28;94373;-69
2022/03/13 09:27:12;;;;;;;16.95;13.15;;;;;;;;;;5012167;28;95130;-69
2022/03/13 09:29:39;;;;;;;14.65;12.27;;;;;;;;;;5011959;28;94270;-69
2022/03/13 09:32:06;;;;;;;18.48;12.43;;;;;;;;;;5014650;28;92457;-69
2022/03/13 09:34:33;;;;;;;16.77;12.27;;;;;;;;;;5011951;28;94263;-69
2022/03/13 09:36:59;;;;;;;17.88;13.00;;;;;;;;;;5012864;28;91738;-69
2022/03/13 09:39:27;;;;;;;18.85;13.65;;;;;;;;;;5011689;28;92489;-69
2022/03/13 09:41:53;;;;;;;21.73;13.95;;;;;;;;;;5012022;28;93521;-69
2022/03/13 09:44:19;;;;;;;19.15;13.40;;;;;;;;;;5009583;28;95334;-69
2022/03/13 09:46:46;;;;;;;18.95;13.60;;;;;;;;;;5012097;28;96443;-69
2022/03/13 09:49:14;;;;;;;25.38;15.18;;;;;;;;;;5012043;28;93294;-69
2022/03/13 09:51:41;;;;;;;22.73;15.98;;;;;;;;;;5011703;28;92661;-69
2022/03/13 09:54:07;;;;;;;36.03;27.02;;;;;;;;;;5016307;28;93250;-69
2022/03/13 09:56:35;;;;;;;18.90;14.75;;;;;;;;;;5022899;28;92525;-69
2022/03/13 09:59:02;;;;;;;24.80;16.77;;;;;;;;;;5011061;28;93098;-69
2022/03/13 10:01:29;;;;;;;21.52;16.38;;;;;;;;;;5012482;28;92587;-70
2022/03/13 10:03:55;;;;;;;27.35;16.40;;;;;;;;;;5012922;28;92509;-69
2022/03/13 10:06:22;;;;;;;21.40;17.90;;;;;;;;;;5011456;28;93269;-69
2022/03/13 10:08:48;;;;;;;15.75;13.38;;;;;;;;;;5010642;28;95556;-69
2022/03/13 10:11:15;;;;;;;23.38;14.88;;;;;;;;;;5015449;28;92860;-69
2022/03/13 10:13:43;;;;;;;28.67;14.43;;;;;;;;;;5017702;28;93346;-69
2022/03/13 10:16:19;;;;;;;18.50;14.35;;;;;;;;;;5015005;28;92476;-69
2022/03/13 10:18:46;;;;;;;15.35;13.23;;;;;;;;;;5015304;28;93255;-70
2022/03/13 10:21:16;;;;;;;14.98;13.10;;;;;;;;;;5014059;28;93594;-70
2022/03/13 10:23:43;;;;;;;21.85;15.52;;;;;;;;;;5015716;28;92652;-69
2022/03/13 10:26:09;;;;;;;20.55;15.25;;;;;;;;;;5015558;28;93601;-70
2022/03/13 10:28:37;;;;;;;22.02;14.32;;;;;;;;;;5014122;28;93658;-70
2022/03/13 10:31:03;;;;;;;18.60;14.25;;;;;;;;;;5015040;28;92495;-69
2022/03/13 10:33:55;;;;;;;15.55;13.95;;;;;;;;;;4997218;28;95341;-70
2022/03/13 10:36:24;;;;;;;16.87;13.73;;;;;;;;;;5017923;28;93434;-69
2022/03/13 10:38:50;;;;;;;15.05;13.35;;;;;;;;;;5014029;28;93192;-70
2022/03/13 10:41:20;;;;;;;17.67;13.38;;;;;;;;;;5012473;28;94832;-69
2022/03/13 10:43:51;;;;;;;17.90;13.93;;;;;;;;;;5014823;28;92501;-69
2022/03/13 10:46:25;;;;;;;17.40;13.02;;;;;;;;;;5013603;28;94225;-69
2022/03/13 10:48:53;;;;;;;15.63;13.25;;;;;;;;;;5014175;28;92360;-69
2022/03/13 10:51:31;;;;;;;15.63;13.55;;;;;;;;;;5014427;28;92356;-69
2022/03/13 10:53:58;;;;;;;18.13;13.65;;;;;;;;;;5014774;28;92549;-69
2022/03/13 10:56:24;;;;;;;20.30;14.45;;;;;;;;;;5013103;28;94226;-69
2022/03/13 10:58:51;;;;;;;17.30;14.82;;;;;;;;;;5031845;28;95280;-69
2022/03/13 11:01:18;;;;;;;17.92;16.02;;;;;;;;;;5017323;27;93399;-69
2022/03/13 11:03:49;;;;;;;15.27;13.68;;;;;;;;;;5013820;28;93060;-69
2022/03/13 11:06:16;;;;;;;22.95;14.70;;;;;;;;;;5011909;28;93129;-69
2022/03/13 11:08:42;;;;;;;16.38;14.55;;;;;;;;;;5011589;28;93749;-68
2022/03/13 11:11:09;;;;;;;17.77;14.27;;;;;;;;;;5012111;28;93735;-68
2022/03/13 11:13:37;;;;;;;21.67;13.73;;;;;;;;;;5011445;28;93126;-68
2022/03/13 11:16:05;;;;;;;18.58;13.98;;;;;;;;;;5001338;28;92838;-69
2022/03/13 11:18:35;;;;;;;14.95;13.43;;;;;;;;;;5013012;28;92854;-68
2022/03/13 11:21:04;;;;;;;20.65;13.85;;;;;;;;;;5016878;28;93438;-68
2022/03/13 11:23:31;;;;;;;14.13;12.73;;;;;;;;;;5010631;28;94891;-68
2022/03/13 11:25:58;;;;;;;15.05;11.90;;;;;;;;;;5011335;28;96420;-69
2022/03/13 11:28:26;;;;;;;17.33;13.35;;;;;;;;;;5012782;28;94270;-69
2022/03/13 11:30:53;;;;;;;15.18;12.88;;;;;;;;;;5012918;28;92637;-69
2022/03/13 11:33:30;;;;;;;45.70;23.88;;;;;;;;;;5014075;28;92484;-69
2022/03/13 11:36:15;;;;;;;66.78;26.27;;;;;;;;;;5013298;28;93429;-69
2022/03/13 11:39:14;;;;;;;93.72;31.83;;;;;;;;;;5013652;28;92850;-69
2022/03/13 11:41:44;;;;;;;68.40;24.08;;;;;;;;;;5000770;28;93922;-70
2022/03/13 11:44:20;;;;;;;104.63;37.35;;;;;;;;;;5013893;28;94180;-69
2022/03/13 11:46:48;;;;;;;81.72;28.38;;;;;;;;;;5012936;28;93054;-69
2022/03/13 11:49:20;;;;;;;185.50;59.72;;;;;;;;;;5002134;27;96918;-69
2022/03/13 11:51:46;;;;;;;86.95;31.33;;;;;;;;;;5003087;28;92755;-69
2022/03/13 11:54:15;;;;;;;36.80;19.40;;;;;;;;;;5013718;28;92627;-69
2022/03/13 11:56:49;;;;;;;209.00;60.08;;;;;;;;;;5013713;28;92482;-69
2022/03/13 11:59:18;;;;;;;197.75;64.70;;;;;;;;;;5012905;28;93112;-68
2022/03/13 12:01:45;;;;;;;25.50;19.65;;;;;;;;;;5012809;28;94537;-68
2022/03/13 12:04:11;;;;;;;36.13;25.60;;;;;;;;;;5014723;28;92467;-70
2022/03/13 12:06:41;;;;;;;39.17;25.55;;;;;;;;;;5017344;27;91760;-69
2022/03/13 12:09:09;;;;;;;25.02;17.00;;;;;;;;;;5013173;28;94507;-70
2022/03/13 12:11:50;;;;;;;16.20;13.95;;;;;;;;;;5013568;28;92433;-70
2022/03/13 12:14:18;;;;;;;30.33;15.95;;;;;;;;;;5011694;28;94931;-70
2022/03/13 12:16:46;;;;;;;17.85;13.07;;;;;;;;;;5013711;28;92503;-70
2022/03/13 12:19:16;;;;;;;21.52;14.90;;;;;;;;;;5010692;28;93105;-70
2022/03/13 12:21:43;;;;;;;10.85;9.77;;;;;;;;;;5013224;28;94984;-70
2022/03/13 12:24:15;;;;;;;16.13;11.68;;;;;;;;;;5010417;28;94194;-70
2022/03/13 12:26:42;;;;;;;16.58;12.15;;;;;;;;;;4995954;28;92646;-70
2022/03/13 12:29:12;;;;;;;15.20;12.60;;;;;;;;;;4994078;28;95669;-70
2022/03/13 12:31:41;;;;;;;14.80;10.30;;;;;;;;;;5004349;28;91826;-70
2022/03/13 12:34:08;;;;;;;14.35;12.85;;;;;;;;;;5012922;28;93364;-69
2022/03/13 12:36:36;;;;;;;18.45;11.90;;;;;;;;;;5013185;28;95169;-70
2022/03/13 12:39:06;;;;;;;12.80;10.75;;;;;;;;;;5011466;28;94865;-70
2022/03/13 12:41:32;;;;;;;13.43;12.02;;;;;;;;;;5012117;28;95529;-70
2022/03/13 12:44:02;;;;;;;11.23;10.07;;;;;;;;;;5013185;28;93444;-69
2022/03/13 12:46:30;;;;;;;10.88;9.82;;;;;;;;;;5013147;28;94014;-70
2022/03/13 12:49:00;;;;;;;15.23;11.00;;;;;;;;;;5016174;28;93877;-70
2022/03/13 12:51:31;;;;;;;12.32;10.50;;;;;;;;;;5012892;28;92986;-70
2022/03/13 12:53:57;;;;;;;11.57;10.35;;;;;;;;;;5012801;28;93137;-70
2022/03/13 12:56:29;;;;;;;12.15;10.48;;;;;;;;;;5012732;28;93665;-70
2022/03/13 12:58:56;;;;;;;11.40;10.23;;;;;;;;;;5013015;28;93174;-70
2022/03/13 13:01:24;;;;;;;12.73;11.43;;;;;;;;;;5011962;28;93869;-70
2022/03/13 13:03:51;;;;;;;12.32;11.02;;;;;;;;;;5010872;28;95640;-70
2022/03/13 13:06:36;;;;;;;13.00;10.15;;;;;;;;;;5012387;28;92539;-70
2022/03/13 13:09:02;;;;;;;11.50;10.32;;;;;;;;;;5012154;28;93299;-70
2022/03/13 13:11:30;;;;;;;12.85;10.68;;;;;;;;;;5015680;28;94244;-70
2022/03/13 13:14:01;;;;;;;12.27;10.07;;;;;;;;;;5012717;28;94019;-70
2022/03/13 13:16:29;;;;;;;16.05;10.30;;;;;;;;;;5011603;28;93866;-70
2022/03/13 13:18:56;;;;;;;15.07;10.02;;;;;;;;;;5012886;28;92429;-70
2022/03/13 13:21:32;;;;;;;10.65;9.27;;;;;;;;;;5012808;28;92968;-70
2022/03/13 13:23:58;;;;;;;11.80;10.57;;;;;;;;;;5012389;28;94209;-70
2022/03/13 13:26:42;;;;;;;12.85;11.07;;;;;;;;;;5011852;28;92528;-70
2022/03/13 13:29:30;;;;;;;11.63;10.50;;;;;;;;;;5010280;28;95307;-70
2022/03/13 13:32:15;;;;;;;16.63;10.43;;;;;;;;;;5012722;28;93315;-70
2022/03/13 13:34:58;;;;;;;13.15;10.77;;;;;;;;;;5015465;28;92477;-70
2022/03/13 13:37:25;;;;;;;11.02;9.90;;;;;;;;;;5011451;28;94296;-70
2022/03/13 13:40:02;;;;;;;15.35;10.40;;;;;;;;;;5012875;28;92484;-70
2022/03/13 13:42:32;;;;;;;11.27;10.13;;;;;;;;;;5012573;27;93339;-70
2022/03/13 13:44:59;;;;;;;10.90;9.35;;;;;;;;;;5011135;28;94191;-70
2022/03/13 13:47:29;;;;;;;10.27;8.98;;;;;;;;;;5013257;28;91825;-69
2022/03/13 13:49:56;;;;;;;14.82;10.32;;;;;;;;;;5013022;28;93161;-70
2022/03/13 13:52:29;;;;;;;11.15;9.60;;;;;;;;;;5011290;28;93214;-69
2022/03/13 13:54:55;;;;;;;11.07;9.05;;;;;;;;;;5011311;28;94915;-70
2022/03/13 13:57:25;;;;;;;15.38;10.73;;;;;;;;;;5015526;28;95162;-69
2022/03/13 13:59:51;;;;;;;12.07;9.57;;;;;;;;;;5012247;28;92910;-70
2022/03/13 14:02:20;;;;;;;10.82;9.80;;;;;;;;;;5012131;28;94010;-70
2022/03/13 14:04:48;;;;;;;11.73;9.02;;;;;;;;;;5012267;28;93537;-70
2022/03/13 14:07:18;;;;;;;10.48;9.30;;;;;;;;;;5012493;28;92822;-70
2022/03/13 14:09:45;;;;;;;11.07;9.63;;;;;;;;;;5012613;28;93386;-70
2022/03/13 14:12:12;;;;;;;11.32;10.18;;;;;;;;;;5012573;28;92015;-70
2022/03/13 14:14:39;;;;;;;12.05;10.43;;;;;;;;;;5012461;27;92497;-70
2022/03/13 14:17:05;;;;;;;11.77;9.35;;;;;;;;;;5014971;28;92979;-70
2022/03/13 14:19:34;;;;;;;13.80;10.65;;;;;;;;;;5010130;28;94918;-70
2022/03/13 14:22:01;;;;;;;11.15;9.98;;;;;;;;;;5011701;28;96556;-70
2022/03/13 14:24:29;;;;;;;11.50;10.43;;;;;;;;;;5010983;28;94285;-70
2022/03/13 14:26:55;;;;;;;12.77;10.98;;;;;;;;;;5011069;28;92617;-70
2022/03/13 14:29:22;;;;;;;14.13;10.73;;;;;;;;;;5011469;28;94062;-70